sensor_id;sensor_type;location;lat;lon;timestamp;pressure;altitude;pressure_sealevel;temperature;humidity
7075;BME280;3578;51.568;6.932;2023-02-03T00:01:21;50852.03;;;-144.14;100.00
7075;BME280;3578;51.568;6.932;2023-02-03T00:03:49;50922.13;;;-144.14;100.00
7075;BME280;3578;51.568;6.932;2023-02-03T00:06:16;50964.16;;;-144.14;100.00
7075;BME280;3578;51.568;6.932;2023-02-03T00:08:43;51010.25;;;-144.14;100.00
7075;BME280;3578;51.568;6.932;2023-02-03T00:11:10;51042.28;;;-144.14;100.00
7075;BME280;3578;51.568;6.932;2023-02-03T00:13:38;50974.19;;;-144.14;100.00
7075;BME280;3578;51.568;6.932;2023-02-03T00:16:05;50986.19;;;-144.14;100.00
7075;BME280;3578;51.568;6.932;2023-02-03T00:18:32;50982.19;;;-144.14;100.00
7075;BME280;3578;51.568;6.932;2023-02-03T00:21:01;51050.28;;;-144.14;100.00
7075;BME280;3578;51.568;6.932;2023-02-03T00:23:28;51098.34;;;-144.14;100.00
7075;BME280;3578;51.568;6.932;2023-02-03T00:25:57;51098.34;;;-144.14;100.00
7075;BME280;3578;51.568;6.932;2023-02-03T00:28:24;51112.38;;;-144.14;100.00
7075;BME280;3578;51.568;6.932;2023-02-03T00:30:53;51090.34;;;-144.14;100.00
7075;BME280;3578;51.568;6.932;2023-02-03T00:33:20;51126.41;;;-144.14;100.00
7075;BME280;3578;51.568;6.932;2023-02-03T00:35:47;51056.31;;;-144.14;100.00
7075;BME280;3578;51.568;6.932;2023-02-03T00:38:15;51090.34;;;-144.14;100.00
7075;BME280;3578;51.568;6.932;2023-02-03T00:40:50;51074.31;;;-144.14;100.00
7075;BME280;3578;51.568;6.932;2023-02-03T00:43:17;51202.50;;;-144.14;100.00
7075;BME280;3578;51.568;6.932;2023-02-03T00:45:44;51244.56;;;-144.14;100.00
7075;BME280;3578;51.568;6.932;2023-02-03T00:48:11;51222.53;;;-144.14;100.00
7075;BME280;3578;51.568;6.932;2023-02-03T00:50:39;51142.41;;;-144.14;100.00
7075;BME280;3578;51.568;6.932;2023-02-03T00:53:06;51194.50;;;-144.14;100.00
7075;BME280;3578;51.568;6.932;2023-02-03T00:55:35;51220.53;;;-144.14;100.00
7075;BME280;3578;51.568;6.932;2023-02-03T00:58:02;51206.50;;;-144.14;100.00
7075;BME280;3578;51.568;6.932;2023-02-03T01:00:30;51296.66;;;-144.14;100.00
7075;BME280;3578;51.568;6.932;2023-02-03T01:03:00;51276.63;;;-144.14;100.00
7075;BME280;3578;51.568;6.932;2023-02-03T01:05:30;51364.75;;;-144.14;100.00
7075;BME280;3578;51.568;6.932;2023-02-03T01:08:01;51302.66;;;-144.14;100.00
7075;BME280;3578;51.568;6.932;2023-02-03T01:10:29;51252.56;;;-144.14;100.00
7075;BME280;3578;51.568;6.932;2023-02-03T01:12:58;51246.56;;;-144.14;100.00
7075;BME280;3578;51.568;6.932;2023-02-03T01:15:25;51246.56;;;-144.14;100.00
7075;BME280;3578;51.568;6.932;2023-02-03T01:17:53;51204.50;;;-144.14;100.00
7075;BME280;3578;51.568;6.932;2023-02-03T01:20:20;51228.53;;;-144.14;100.00
7075;BME280;3578;51.568;6.932;2023-02-03T01:22:48;51138.41;;;-144.14;100.00
7075;BME280;3578;51.568;6.932;2023-02-03T01:25:16;51116.38;;;-144.14;100.00
7075;BME280;3578;51.568;6.932;2023-02-03T01:27:44;51194.50;;;-144.14;100.00
7075;BME280;3578;51.568;6.932;2023-02-03T01:30:17;51144.44;;;-144.14;100.00
7075;BME280;3578;51.568;6.932;2023-02-03T01:32:44;51138.41;;;-144.14;100.00
7075;BME280;3578;51.568;6.932;2023-02-03T01:35:11;51110.38;;;-144.14;100.00
7075;BME280;3578;51.568;6.932;2023-02-03T01:37:38;51138.41;;;-144.14;100.00
7075;BME280;3578;51.568;6.932;2023-02-03T01:40:07;51196.50;;;-144.14;100.00
7075;BME280;3578;51.568;6.932;2023-02-03T01:42:34;51106.38;;;-144.14;100.00
7075;BME280;3578;51.568;6.932;2023-02-03T01:45:01;50930.13;;;-144.14;100.00
7075;BME280;3578;51.568;6.932;2023-02-03T01:47:33;50942.16;;;-144.14;100.00
7075;BME280;3578;51.568;6.932;2023-02-03T01:50:10;51014.25;;;-144.14;100.00
7075;BME280;3578;51.568;6.932;2023-02-03T01:52:41;51070.31;;;-144.14;100.00
7075;BME280;3578;51.568;6.932;2023-02-03T01:55:15;51080.34;;;-144.14;100.00
7075;BME280;3578;51.568;6.932;2023-02-03T01:57:48;51132.41;;;-144.14;100.00
7075;BME280;3578;51.568;6.932;2023-02-03T02:00:18;51178.47;;;-144.14;100.00
7075;BME280;3578;51.568;6.932;2023-02-03T02:02:48;51234.56;;;-144.14;100.00
7075;BME280;3578;51.568;6.932;2023-02-03T02:05:23;51174.47;;;-144.14;100.00
7075;BME280;3578;51.568;6.932;2023-02-03T02:07:56;51228.53;;;-144.14;100.00
7075;BME280;3578;51.568;6.932;2023-02-03T02:10:24;51232.56;;;-144.14;100.00
7075;BME280;3578;51.568;6.932;2023-02-03T02:12:53;51244.56;;;-144.14;100.00
7075;BME280;3578;51.568;6.932;2023-02-03T02:15:26;51228.53;;;-144.14;100.00
7075;BME280;3578;51.568;6.932;2023-02-03T02:18:18;51222.53;;;-144.14;100.00
7075;BME280;3578;51.568;6.932;2023-02-03T02:21:30;51214.53;;;-144.14;100.00
7075;BME280;3578;51.568;6.932;2023-02-03T02:27:07;51134.41;;;-144.14;100.00
7075;BME280;3578;51.568;6.932;2023-02-03T02:30:16;51170.47;;;-144.14;100.00
7075;BME280;3578;51.568;6.932;2023-02-03T02:33:01;51194.50;;;-144.14;100.00
7075;BME280;3578;51.568;6.932;2023-02-03T02:35:46;51226.53;;;-144.14;100.00
7075;BME280;3578;51.568;6.932;2023-02-03T02:38:26;51226.53;;;-144.14;100.00
7075;BME280;3578;51.568;6.932;2023-02-03T02:41:04;51166.47;;;-144.14;100.00
7075;BME280;3578;51.568;6.932;2023-02-03T02:43:40;51224.53;;;-144.14;100.00
7075;BME280;3578;51.568;6.932;2023-02-03T02:46:10;51148.44;;;-144.14;100.00
7075;BME280;3578;51.568;6.932;2023-02-03T02:48:44;51110.38;;;-144.14;100.00
7075;BME280;3578;51.568;6.932;2023-02-03T02:51:14;51110.38;;;-144.14;100.00
7075;BME280;3578;51.568;6.932;2023-02-03T02:53:46;51146.44;;;-144.14;100.00
7075;BME280;3578;51.568;6.932;2023-02-03T02:56:16;51182.47;;;-144.14;100.00
7075;BME280;3578;51.568;6.932;2023-02-03T02:58:47;51246.56;;;-144.14;100.00
7075;BME280;3578;51.568;6.932;2023-02-03T03:01:16;51274.63;;;-144.14;100.00
7075;BME280;3578;51.568;6.932;2023-02-03T03:03:45;51288.63;;;-144.14;100.00
7075;BME280;3578;51.568;6.932;2023-02-03T03:06:17;51290.63;;;-144.14;100.00
7075;BME280;3578;51.568;6.932;2023-02-03T03:08:48;51258.59;;;-144.14;100.00
7075;BME280;3578;51.568;6.932;2023-02-03T03:11:17;51242.56;;;-144.14;100.00
7075;BME280;3578;51.568;6.932;2023-02-03T03:13:48;51258.59;;;-144.14;100.00
7075;BME280;3578;51.568;6.932;2023-02-03T03:16:19;51252.56;;;-144.14;100.00
7075;BME280;3578;51.568;6.932;2023-02-03T03:18:50;51266.59;;;-144.14;100.00
7075;BME280;3578;51.568;6.932;2023-02-03T03:21:23;51318.69;;;-144.14;100.00
7075;BME280;3578;51.568;6.932;2023-02-03T03:23:54;51298.66;;;-144.14;99.94
7075;BME280;3578;51.568;6.932;2023-02-03T03:26:27;51342.72;;;-144.14;99.90
7075;BME280;3578;51.568;6.932;2023-02-03T03:29:06;51318.69;;;-144.14;99.94
7075;BME280;3578;51.568;6.932;2023-02-03T03:31:36;51346.72;;;-144.14;99.67
7075;BME280;3578;51.568;6.932;2023-02-03T03:34:05;51400.81;;;-144.14;99.57
7075;BME280;3578;51.568;6.932;2023-02-03T03:36:41;51396.78;;;-144.14;99.71
7075;BME280;3578;51.568;6.932;2023-02-03T03:39:15;51424.84;;;-144.14;99.57
7075;BME280;3578;51.568;6.932;2023-02-03T03:41:56;51414.81;;;-144.14;99.83
7075;BME280;3578;51.568;6.932;2023-02-03T03:44:31;51388.78;;;-144.14;99.78
7075;BME280;3578;51.568;6.932;2023-02-03T03:47:10;51418.81;;;-144.14;99.51
7075;BME280;3578;51.568;6.932;2023-02-03T03:49:44;51474.91;;;-144.14;99.17
7075;BME280;3578;51.568;6.932;2023-02-03T03:52:16;51520.97;;;-144.14;98.89
7075;BME280;3578;51.568;6.932;2023-02-03T03:54:46;51549.03;;;-144.14;98.90
7075;BME280;3578;51.568;6.932;2023-02-03T03:57:18;51543.00;;;-144.14;98.83
7075;BME280;3578;51.568;6.932;2023-02-03T03:59:48;51535.00;;;-144.14;98.79
7075;BME280;3578;51.568;6.932;2023-02-03T04:02:17;51512.97;;;-144.14;99.21
7075;BME280;3578;51.568;6.932;2023-02-03T04:04:48;51508.97;;;-144.14;99.31
7075;BME280;3578;51.568;6.932;2023-02-03T04:07:15;51482.91;;;-144.14;99.33
7075;BME280;3578;51.568;6.932;2023-02-03T04:09:43;51529.00;;;-144.14;98.95
7075;BME280;3578;51.568;6.932;2023-02-03T04:12:20;51525.00;;;-144.14;98.97
7075;BME280;3578;51.568;6.932;2023-02-03T04:14:48;51573.06;;;-144.14;98.82
7075;BME280;3578;51.568;6.932;2023-02-03T04:17:15;51603.09;;;-144.14;98.42
7075;BME280;3578;51.568;6.932;2023-02-03T04:19:46;51522.97;;;-144.14;99.13
7075;BME280;3578;51.568;6.932;2023-02-03T04:22:13;51565.06;;;-144.14;98.83
7075;BME280;3578;51.568;6.932;2023-02-03T04:24:40;51593.09;;;-144.14;98.76
7075;BME280;3578;51.568;6.932;2023-02-03T04:27:07;51577.06;;;-144.14;98.71
7075;BME280;3578;51.568;6.932;2023-02-03T04:29:34;51609.13;;;-144.14;98.61
7075;BME280;3578;51.568;6.932;2023-02-03T04:32:01;51603.09;;;-144.14;98.56
7075;BME280;3578;51.568;6.932;2023-02-03T04:34:28;51661.19;;;-144.14;98.27
7075;BME280;3578;51.568;6.932;2023-02-03T04:36:57;51645.16;;;-144.14;98.26
7075;BME280;3578;51.568;6.932;2023-02-03T04:39:24;51665.22;;;-144.14;98.34
7075;BME280;3578;51.568;6.932;2023-02-03T04:41:51;51663.19;;;-144.14;98.43
7075;BME280;3578;51.568;6.932;2023-02-03T04:44:18;51651.19;;;-144.14;98.58
7075;BME280;3578;51.568;6.932;2023-02-03T04:46:45;51627.16;;;-144.14;98.45
7075;BME280;3578;51.568;6.932;2023-02-03T04:49:12;51647.19;;;-144.14;98.31
7075;BME280;3578;51.568;6.932;2023-02-03T04:51:39;51671.22;;;-144.14;98.53
7075;BME280;3578;51.568;6.932;2023-02-03T04:54:09;51667.22;;;-144.14;98.19
7075;BME280;3578;51.568;6.932;2023-02-03T04:56:37;51631.16;;;-144.14;98.26
7075;BME280;3578;51.568;6.932;2023-02-03T04:59:04;51703.25;;;-144.14;98.46
7075;BME280;3578;51.568;6.932;2023-02-03T05:01:31;51671.22;;;-144.14;98.47
7075;BME280;3578;51.568;6.932;2023-02-03T05:03:58;51651.19;;;-144.14;98.66
7075;BME280;3578;51.568;6.932;2023-02-03T05:06:27;51518.97;;;-144.14;99.46
7075;BME280;3578;51.568;6.932;2023-02-03T05:08:55;51434.84;;;-144.14;99.74
7075;BME280;3578;51.568;6.932;2023-02-03T05:11:23;51440.84;;;-144.14;99.81
7075;BME280;3578;51.568;6.932;2023-02-03T05:13:52;51535.00;;;-144.14;99.28
7075;BME280;3578;51.568;6.932;2023-02-03T05:16:19;51575.06;;;-144.14;98.94
7075;BME280;3578;51.568;6.932;2023-02-03T05:18:46;51591.09;;;-144.14;98.73
7075;BME280;3578;51.568;6.932;2023-02-03T05:21:13;51605.09;;;-144.14;98.64
7075;BME280;3578;51.568;6.932;2023-02-03T05:23:40;51579.06;;;-144.14;98.86
7075;BME280;3578;51.568;6.932;2023-02-03T05:26:07;51625.16;;;-144.14;98.69
7075;BME280;3578;51.568;6.932;2023-02-03T05:28:35;51617.13;;;-144.14;98.48
7075;BME280;3578;51.568;6.932;2023-02-03T05:31:03;51661.19;;;-144.14;98.24
7075;BME280;3578;51.568;6.932;2023-02-03T05:33:30;51659.19;;;-144.14;98.14
7075;BME280;3578;51.568;6.932;2023-02-03T05:35:57;51707.28;;;-144.14;98.28
7075;BME280;3578;51.568;6.932;2023-02-03T05:38:24;51669.22;;;-144.14;98.31
7075;BME280;3578;51.568;6.932;2023-02-03T05:40:51;51661.19;;;-144.14;98.32
7075;BME280;3578;51.568;6.932;2023-02-03T05:43:37;51723.28;;;-144.14;98.20
7075;BME280;3578;51.568;6.932;2023-02-03T05:46:06;51743.34;;;-144.14;97.94
7075;BME280;3578;51.568;6.932;2023-02-03T05:48:33;51759.34;;;-144.14;97.67
7075;BME280;3578;51.568;6.932;2023-02-03T05:51:00;51759.34;;;-144.14;97.68
7075;BME280;3578;51.568;6.932;2023-02-03T05:53:27;51755.34;;;-144.14;97.75
7075;BME280;3578;51.568;6.932;2023-02-03T05:55:54;51779.38;;;-144.14;97.72
7075;BME280;3578;51.568;6.932;2023-02-03T05:58:21;51787.41;;;-144.14;97.56
7075;BME280;3578;51.568;6.932;2023-02-03T06:00:50;51815.44;;;-144.14;97.44
7075;BME280;3578;51.568;6.932;2023-02-03T06:03:18;51811.44;;;-144.14;97.59
7075;BME280;3578;51.568;6.932;2023-02-03T06:05:45;51823.47;;;-144.14;97.46
7075;BME280;3578;51.568;6.932;2023-02-03T06:08:12;51815.44;;;-144.14;97.43
7075;BME280;3578;51.568;6.932;2023-02-03T06:10:39;51801.41;;;-144.14;97.46
7075;BME280;3578;51.568;6.932;2023-02-03T06:13:11;51741.31;;;-144.14;97.41
7075;BME280;3578;51.568;6.932;2023-02-03T06:15:39;51805.44;;;-144.14;97.71
7075;BME280;3578;51.568;6.932;2023-02-03T06:18:08;51827.47;;;-144.14;97.45
7075;BME280;3578;51.568;6.932;2023-02-03T06:20:35;51853.50;;;-144.14;97.42
7075;BME280;3578;51.568;6.932;2023-02-03T06:23:02;51857.50;;;-144.14;97.02
7075;BME280;3578;51.568;6.932;2023-02-03T06:25:29;51869.53;;;-144.14;97.16
7075;BME280;3578;51.568;6.932;2023-02-03T06:27:57;51835.47;;;-144.14;97.38
7075;BME280;3578;51.568;6.932;2023-02-03T06:30:24;51831.47;;;-144.14;97.45
7075;BME280;3578;51.568;6.932;2023-02-03T06:32:51;51815.44;;;-144.14;97.83
7075;BME280;3578;51.568;6.932;2023-02-03T06:35:20;51811.44;;;-144.14;97.74
7075;BME280;3578;51.568;6.932;2023-02-03T06:37:47;51823.47;;;-144.14;97.53
7075;BME280;3578;51.568;6.932;2023-02-03T06:40:13;51839.47;;;-144.14;97.48
7075;BME280;3578;51.568;6.932;2023-02-03T06:42:44;51875.53;;;-144.14;97.29
7075;BME280;3578;51.568;6.932;2023-02-03T06:45:12;51851.50;;;-144.14;97.43
7075;BME280;3578;51.568;6.932;2023-02-03T06:47:39;51831.47;;;-144.14;97.48
7075;BME280;3578;51.568;6.932;2023-02-03T06:50:08;51833.47;;;-144.14;97.69
7075;BME280;3578;51.568;6.932;2023-02-03T06:52:36;51779.38;;;-144.14;98.38
7075;BME280;3578;51.568;6.932;2023-02-03T06:55:04;51751.34;;;-144.14;98.30
7075;BME280;3578;51.568;6.932;2023-02-03T06:57:32;51755.34;;;-144.14;98.43
7075;BME280;3578;51.568;6.932;2023-02-03T06:59:59;51741.31;;;-144.14;98.60
7075;BME280;3578;51.568;6.932;2023-02-03T07:02:26;51791.41;;;-144.14;98.23
7075;BME280;3578;51.568;6.932;2023-02-03T07:04:53;51753.34;;;-144.14;98.19
7075;BME280;3578;51.568;6.932;2023-02-03T07:07:20;51777.38;;;-144.14;98.07
7075;BME280;3578;51.568;6.932;2023-02-03T07:09:48;51809.44;;;-144.14;97.92
7075;BME280;3578;51.568;6.932;2023-02-03T07:12:15;51729.31;;;-144.14;98.26
7075;BME280;3578;51.568;6.932;2023-02-03T07:14:42;51775.38;;;-144.14;98.15
7075;BME280;3578;51.568;6.932;2023-02-03T07:17:09;51777.38;;;-144.14;98.06
7075;BME280;3578;51.568;6.932;2023-02-03T07:19:36;51799.41;;;-144.14;98.22
7075;BME280;3578;51.568;6.932;2023-02-03T07:22:03;51759.34;;;-144.14;98.12
7075;BME280;3578;51.568;6.932;2023-02-03T07:24:30;51797.41;;;-144.14;97.81
7075;BME280;3578;51.568;6.932;2023-02-03T07:26:58;51823.47;;;-144.14;97.73
7075;BME280;3578;51.568;6.932;2023-02-03T07:29:25;51843.50;;;-144.14;97.77
7075;BME280;3578;51.568;6.932;2023-02-03T07:31:52;51831.47;;;-144.14;97.83
7075;BME280;3578;51.568;6.932;2023-02-03T07:34:19;51803.44;;;-144.14;97.99
7075;BME280;3578;51.568;6.932;2023-02-03T07:36:46;51803.44;;;-144.14;97.97
7075;BME280;3578;51.568;6.932;2023-02-03T07:39:13;51833.47;;;-144.14;97.81
7075;BME280;3578;51.568;6.932;2023-02-03T07:41:40;51839.47;;;-144.14;97.88
7075;BME280;3578;51.568;6.932;2023-02-03T07:44:09;51839.47;;;-144.14;97.86
7075;BME280;3578;51.568;6.932;2023-02-03T07:46:36;51865.53;;;-144.14;97.67
7075;BME280;3578;51.568;6.932;2023-02-03T07:49:09;51857.50;;;-144.14;97.59
7075;BME280;3578;51.568;6.932;2023-02-03T07:51:36;51877.53;;;-144.14;97.50
7075;BME280;3578;51.568;6.932;2023-02-03T07:54:03;51871.53;;;-144.14;97.51
7075;BME280;3578;51.568;6.932;2023-02-03T07:56:31;51893.56;;;-144.14;97.63
7075;BME280;3578;51.568;6.932;2023-02-03T07:58:58;51863.53;;;-144.14;97.65
7075;BME280;3578;51.568;6.932;2023-02-03T08:01:27;51873.53;;;-144.14;97.38
7075;BME280;3578;51.568;6.932;2023-02-03T08:03:56;51903.59;;;-144.14;97.16
7075;BME280;3578;51.568;6.932;2023-02-03T08:06:22;51947.66;;;-144.14;97.10
7075;BME280;3578;51.568;6.932;2023-02-03T08:08:49;51933.63;;;-144.14;96.90
7075;BME280;3578;51.568;6.932;2023-02-03T08:11:18;51999.75;;;-144.14;96.70
7075;BME280;3578;51.568;6.932;2023-02-03T08:13:45;51999.75;;;-144.14;96.71
7075;BME280;3578;51.568;6.932;2023-02-03T08:16:12;51985.72;;;-144.14;96.87
7075;BME280;3578;51.568;6.932;2023-02-03T08:18:40;52011.78;;;-144.14;96.73
7075;BME280;3578;51.568;6.932;2023-02-03T08:21:08;52007.75;;;-144.14;96.73
7075;BME280;3578;51.568;6.932;2023-02-03T08:23:35;52027.78;;;-144.14;96.65
7075;BME280;3578;51.568;6.932;2023-02-03T08:26:02;52019.78;;;-144.14;96.44
7075;BME280;3578;51.568;6.932;2023-02-03T08:28:29;52015.78;;;-144.14;96.60
7075;BME280;3578;51.568;6.932;2023-02-03T08:30:56;52031.81;;;-144.14;96.62
7075;BME280;3578;51.568;6.932;2023-02-03T08:33:23;52037.81;;;-144.14;96.49
7075;BME280;3578;51.568;6.932;2023-02-03T08:35:51;52075.88;;;-144.14;96.24
7075;BME280;3578;51.568;6.932;2023-02-03T08:38:19;52075.88;;;-144.14;96.19
7075;BME280;3578;51.568;6.932;2023-02-03T08:40:47;52095.91;;;-144.14;96.14
7075;BME280;3578;51.568;6.932;2023-02-03T08:43:13;52115.94;;;-144.14;96.18
7075;BME280;3578;51.568;6.932;2023-02-03T08:45:40;52065.84;;;-144.14;96.25
7075;BME280;3578;51.568;6.932;2023-02-03T08:48:08;52113.94;;;-144.14;96.08
7075;BME280;3578;51.568;6.932;2023-02-03T08:50:34;52113.94;;;-144.14;95.79
7075;BME280;3578;51.568;6.932;2023-02-03T08:53:03;52146.00;;;-144.14;95.72
7075;BME280;3578;51.568;6.932;2023-02-03T08:55:30;52156.00;;;-144.14;95.59
7075;BME280;3578;51.568;6.932;2023-02-03T08:57:57;52190.06;;;-144.14;95.32
7075;BME280;3578;51.568;6.932;2023-02-03T09:00:24;52180.06;;;-144.14;95.23
7075;BME280;3578;51.568;6.932;2023-02-03T09:02:52;52178.06;;;-144.14;95.46
7075;BME280;3578;51.568;6.932;2023-02-03T09:05:19;52156.00;;;-144.14;95.78
7075;BME280;3578;51.568;6.932;2023-02-03T09:07:46;52204.09;;;-144.14;95.43
7075;BME280;3578;51.568;6.932;2023-02-03T09:10:14;52188.06;;;-144.14;95.53
7075;BME280;3578;51.568;6.932;2023-02-03T09:12:41;52196.09;;;-144.14;95.40
7075;BME280;3578;51.568;6.932;2023-02-03T09:15:09;52184.06;;;-144.14;95.45
7075;BME280;3578;51.568;6.932;2023-02-03T09:17:36;52174.03;;;-144.14;95.51
7075;BME280;3578;51.568;6.932;2023-02-03T09:20:04;52131.97;;;-144.14;95.88
7075;BME280;3578;51.568;6.932;2023-02-03T09:22:31;52176.03;;;-144.14;95.85
7075;BME280;3578;51.568;6.932;2023-02-03T09:24:58;52204.09;;;-144.14;95.83
7075;BME280;3578;51.568;6.932;2023-02-03T09:27:26;52200.09;;;-144.14;95.74
7075;BME280;3578;51.568;6.932;2023-02-03T09:29:53;52154.00;;;-144.14;95.67
7075;BME280;3578;51.568;6.932;2023-02-03T09:32:20;52212.09;;;-144.14;95.40
7075;BME280;3578;51.568;6.932;2023-02-03T09:34:47;52218.13;;;-144.14;95.37
7075;BME280;3578;51.568;6.932;2023-02-03T09:37:14;52236.16;;;-144.14;95.33
7075;BME280;3578;51.568;6.932;2023-02-03T09:39:41;52224.13;;;-144.14;95.53
7075;BME280;3578;51.568;6.932;2023-02-03T09:42:23;52196.09;;;-144.14;95.37
7075;BME280;3578;51.568;6.932;2023-02-03T09:45:09;52226.13;;;-144.14;94.98
7075;BME280;3578;51.568;6.932;2023-02-03T09:47:40;52236.16;;;-144.14;95.20
7075;BME280;3578;51.568;6.932;2023-02-03T09:50:13;52214.13;;;-144.14;95.46
7075;BME280;3578;51.568;6.932;2023-02-03T09:52:45;52192.06;;;-144.14;95.48
7075;BME280;3578;51.568;6.932;2023-02-03T09:55:25;52200.09;;;-144.14;95.64
7075;BME280;3578;51.568;6.932;2023-02-03T09:58:00;52194.09;;;-144.14;95.75
7075;BME280;3578;51.568;6.932;2023-02-03T10:00:35;52184.06;;;-144.14;95.77
7075;BME280;3578;51.568;6.932;2023-02-03T10:03:09;52240.16;;;-144.14;95.43
7075;BME280;3578;51.568;6.932;2023-02-03T10:05:59;52184.06;;;-144.14;95.96
7075;BME280;3578;51.568;6.932;2023-02-03T10:08:55;52202.09;;;-144.14;95.74
7075;BME280;3578;51.568;6.932;2023-02-03T10:11:46;52228.13;;;-144.14;95.26
7075;BME280;3578;51.568;6.932;2023-02-03T10:14:31;52260.19;;;-144.14;94.92
7075;BME280;3578;51.568;6.932;2023-02-03T10:17:18;52276.22;;;-144.14;94.76
7075;BME280;3578;51.568;6.932;2023-02-03T10:19:54;52322.31;;;-144.14;94.66
7075;BME280;3578;51.568;6.932;2023-02-03T10:22:26;52276.22;;;-144.14;94.45
7075;BME280;3578;51.568;6.932;2023-02-03T10:24:58;52300.25;;;-144.14;94.67
7075;BME280;3578;51.568;6.932;2023-02-03T10:27:27;52326.31;;;-144.14;94.92
7075;BME280;3578;51.568;6.932;2023-02-03T10:29:59;52302.28;;;-144.14;94.91
7075;BME280;3578;51.568;6.932;2023-02-03T10:32:30;52320.31;;;-144.14;94.99
7075;BME280;3578;51.568;6.932;2023-02-03T10:35:00;52276.22;;;-144.14;94.86
7075;BME280;3578;51.568;6.932;2023-02-03T10:37:30;52282.22;;;-144.14;94.81
7075;BME280;3578;51.568;6.932;2023-02-03T10:40:00;52250.19;;;-144.14;95.52
7075;BME280;3578;51.568;6.932;2023-02-03T10:42:29;52226.13;;;-144.14;95.61
7075;BME280;3578;51.568;6.932;2023-02-03T10:45:18;52272.22;;;-144.14;95.14
7075;BME280;3578;51.568;6.932;2023-02-03T10:47:50;52288.25;;;-144.14;94.99
7075;BME280;3578;51.568;6.932;2023-02-03T10:50:21;52294.25;;;-144.14;94.89
7075;BME280;3578;51.568;6.932;2023-02-03T10:52:48;52284.25;;;-144.14;95.20
7075;BME280;3578;51.568;6.932;2023-02-03T10:55:30;52316.28;;;-144.14;95.02
7075;BME280;3578;51.568;6.932;2023-02-03T10:57:57;52306.28;;;-144.14;95.08
7075;BME280;3578;51.568;6.932;2023-02-03T11:00:33;52246.16;;;-144.14;95.44
7075;BME280;3578;51.568;6.932;2023-02-03T11:03:06;52284.25;;;-144.14;95.61
7075;BME280;3578;51.568;6.932;2023-02-03T11:05:34;52244.16;;;-144.14;95.57
7075;BME280;3578;51.568;6.932;2023-02-03T11:08:02;52280.22;;;-144.14;95.31
7075;BME280;3578;51.568;6.932;2023-02-03T11:10:32;52284.25;;;-144.14;95.27
7075;BME280;3578;51.568;6.932;2023-02-03T11:13:19;52248.19;;;-144.14;95.85
7075;BME280;3578;51.568;6.932;2023-02-03T11:15:59;52250.19;;;-144.14;95.80
7075;BME280;3578;51.568;6.932;2023-02-03T11:18:45;52266.19;;;-144.14;95.67
7075;BME280;3578;51.568;6.932;2023-02-03T11:21:16;52296.25;;;-144.14;95.59
7075;BME280;3578;51.568;6.932;2023-02-03T11:23:55;52248.19;;;-144.14;95.78
7075;BME280;3578;51.568;6.932;2023-02-03T11:26:26;52272.22;;;-144.14;95.79
7075;BME280;3578;51.568;6.932;2023-02-03T11:28:57;52240.16;;;-144.14;95.78
7075;BME280;3578;51.568;6.932;2023-02-03T11:31:27;52214.13;;;-144.14;95.30
7075;BME280;3578;51.568;6.932;2023-02-03T11:34:00;52338.34;;;-144.14;95.20
7075;BME280;3578;51.568;6.932;2023-02-03T11:36:30;52336.31;;;-144.14;94.73
7075;BME280;3578;51.568;6.932;2023-02-03T11:39:20;52356.38;;;-144.14;94.70
7075;BME280;3578;51.568;6.932;2023-02-03T11:41:50;52344.34;;;-144.14;94.59
7075;BME280;3578;51.568;6.932;2023-02-03T11:44:20;52288.25;;;-144.14;94.69
7075;BME280;3578;51.568;6.932;2023-02-03T11:46:52;52320.31;;;-144.14;94.64
7075;BME280;3578;51.568;6.932;2023-02-03T11:52:55;52404.44;;;-144.14;94.76
7075;BME280;3578;51.568;6.932;2023-02-03T11:55:52;52322.31;;;-144.14;94.98
7075;BME280;3578;51.568;6.932;2023-02-03T12:05:22;52384.41;;;-144.14;94.77
7075;BME280;3578;51.568;6.932;2023-02-03T12:08:07;52348.34;;;-144.14;94.82
7075;BME280;3578;51.568;6.932;2023-02-03T12:10:46;52346.34;;;-144.14;95.00
7075;BME280;3578;51.568;6.932;2023-02-03T12:13:34;52388.41;;;-144.14;94.91
7075;BME280;3578;51.568;6.932;2023-02-03T12:16:16;52362.38;;;-144.14;95.17
7075;BME280;3578;51.568;6.932;2023-02-03T12:18:56;52318.28;;;-144.14;95.47
7075;BME280;3578;51.568;6.932;2023-02-03T12:21:42;52276.22;;;-144.14;95.79
7075;BME280;3578;51.568;6.932;2023-02-03T12:24:23;52328.31;;;-144.14;95.63
7075;BME280;3578;51.568;6.932;2023-02-03T12:27:09;52336.31;;;-144.14;95.16
7075;BME280;3578;51.568;6.932;2023-02-03T12:29:44;52324.31;;;-144.14;95.34
7075;BME280;3578;51.568;6.932;2023-02-03T12:32:22;52348.34;;;-144.14;95.23
7075;BME280;3578;51.568;6.932;2023-02-03T12:34:58;52372.38;;;-144.14;95.07
7075;BME280;3578;51.568;6.932;2023-02-03T12:37:38;52366.38;;;-144.14;94.55
7075;BME280;3578;51.568;6.932;2023-02-03T12:40:15;52394.44;;;-144.14;94.60
7075;BME280;3578;51.568;6.932;2023-02-03T12:42:50;52416.47;;;-144.14;94.58
7075;BME280;3578;51.568;6.932;2023-02-03T12:45:24;52440.50;;;-144.14;94.56
7075;BME280;3578;51.568;6.932;2023-02-03T12:47:56;52472.56;;;-144.14;94.16
7075;BME280;3578;51.568;6.932;2023-02-03T12:50:31;52476.59;;;-144.14;93.37
7075;BME280;3578;51.568;6.932;2023-02-03T12:53:05;52506.63;;;-144.14;93.25
7075;BME280;3578;51.568;6.932;2023-02-03T12:55:38;52518.66;;;-144.14;93.39
7075;BME280;3578;51.568;6.932;2023-02-03T12:58:11;52486.59;;;-144.14;93.41
7075;BME280;3578;51.568;6.932;2023-02-03T13:00:46;52512.66;;;-144.14;93.32
7075;BME280;3578;51.568;6.932;2023-02-03T13:03:22;52490.59;;;-144.14;93.33
7075;BME280;3578;51.568;6.932;2023-02-03T13:06:01;52550.72;;;-144.14;93.11
7075;BME280;3578;51.568;6.932;2023-02-03T13:08:35;52526.66;;;-144.14;93.38
7075;BME280;3578;51.568;6.932;2023-02-03T13:11:18;52550.72;;;-144.14;93.08
7075;BME280;3578;51.568;6.932;2023-02-03T13:13:50;52544.69;;;-144.14;92.88
7075;BME280;3578;51.568;6.932;2023-02-03T13:16:23;52528.69;;;-144.14;92.88
7075;BME280;3578;51.568;6.932;2023-02-03T13:18:55;52584.78;;;-144.14;92.84
7075;BME280;3578;51.568;6.932;2023-02-03T13:21:26;52530.69;;;-144.14;93.18
7075;BME280;3578;51.568;6.932;2023-02-03T13:23:55;52520.66;;;-144.14;93.31
7075;BME280;3578;51.568;6.932;2023-02-03T13:26:48;52524.66;;;-144.14;93.48
7075;BME280;3578;51.568;6.932;2023-02-03T13:29:52;52486.59;;;-144.14;93.54
7075;BME280;3578;51.568;6.932;2023-02-03T13:32:41;52524.66;;;-144.14;93.68